sensor_id;sensor_type;location;lat;lon;timestamp;temperature;humidity
69204;DHT22;56317;27.658;85.326;2023-04-08T00:01:05;11.00;99.90
69204;DHT22;56317;27.658;85.326;2023-04-08T00:03:32;11.00;99.90
69204;DHT22;56317;27.658;85.326;2023-04-08T00:06:00;11.00;99.90
69204;DHT22;56317;27.658;85.326;2023-04-08T00:08:29;11.00;99.90
69204;DHT22;56317;27.658;85.326;2023-04-08T00:11:02;11.00;99.90
69204;DHT22;56317;27.658;85.326;2023-04-08T00:13:29;11.00;99.90
69204;DHT22;56317;27.658;85.326;2023-04-08T00:15:56;11.10;99.90
69204;DHT22;56317;27.658;85.326;2023-04-08T00:18:24;11.10;99.90
69204;DHT22;56317;27.658;85.326;2023-04-08T00:20:54;11.10;99.90
69204;DHT22;56317;27.658;85.326;2023-04-08T00:23:22;11.10;99.90
69204;DHT22;56317;27.658;85.326;2023-04-08T00:25:50;11.10;99.90
69204;DHT22;56317;27.658;85.326;2023-04-08T00:28:20;11.10;99.90
69204;DHT22;56317;27.658;85.326;2023-04-08T00:30:47;11.20;99.90
69204;DHT22;56317;27.658;85.326;2023-04-08T00:33:14;11.30;99.90
69204;DHT22;56317;27.658;85.326;2023-04-08T00:35:42;11.40;99.90
69204;DHT22;56317;27.658;85.326;2023-04-08T00:38:09;11.50;99.90
69204;DHT22;56317;27.658;85.326;2023-04-08T00:40:36;11.60;99.90
69204;DHT22;56317;27.658;85.326;2023-04-08T00:43:04;11.70;99.90
69204;DHT22;56317;27.658;85.326;2023-04-08T00:45:32;11.80;99.90
69204;DHT22;56317;27.658;85.326;2023-04-08T00:48:01;11.90;99.90
69204;DHT22;56317;27.658;85.326;2023-04-08T00:50:29;12.10;99.90
69204;DHT22;56317;27.658;85.326;2023-04-08T00:52:56;12.30;99.90
69204;DHT22;56317;27.658;85.326;2023-04-08T00:55:23;12.40;99.90
69204;DHT22;56317;27.658;85.326;2023-04-08T00:57:51;12.60;99.90
69204;DHT22;56317;27.658;85.326;2023-04-08T01:00:18;12.70;99.90
69204;DHT22;56317;27.658;85.326;2023-04-08T01:03:07;12.90;99.90
69204;DHT22;56317;27.658;85.326;2023-04-08T01:06:05;13.20;99.90
69204;DHT22;56317;27.658;85.326;2023-04-08T01:08:36;13.60;99.90
69204;DHT22;56317;27.658;85.326;2023-04-08T01:11:05;13.80;99.90
69204;DHT22;56317;27.658;85.326;2023-04-08T01:13:36;14.10;99.90
69204;DHT22;56317;27.658;85.326;2023-04-08T01:16:07;14.30;99.90
69204;DHT22;56317;27.658;85.326;2023-04-08T01:18:35;14.50;99.90
69204;DHT22;56317;27.658;85.326;2023-04-08T01:21:03;14.70;99.90
69204;DHT22;56317;27.658;85.326;2023-04-08T01:24:08;14.90;99.90
69204;DHT22;56317;27.658;85.326;2023-04-08T01:26:37;15.10;99.90
69204;DHT22;56317;27.658;85.326;2023-04-08T01:29:05;15.50;99.90
69204;DHT22;56317;27.658;85.326;2023-04-08T01:31:36;15.70;99.90
69204;DHT22;56317;27.658;85.326;2023-04-08T01:34:05;15.90;99.90
69204;DHT22;56317;27.658;85.326;2023-04-08T01:36:34;16.10;99.90
69204;DHT22;56317;27.658;85.326;2023-04-08T01:39:04;16.20;99.90
69204;DHT22;56317;27.658;85.326;2023-04-08T01:41:34;16.40;99.90
69204;DHT22;56317;27.658;85.326;2023-04-08T01:44:05;16.50;99.90
69204;DHT22;56317;27.658;85.326;2023-04-08T01:46:32;16.50;99.90
69204;DHT22;56317;27.658;85.326;2023-04-08T01:49:01;16.60;99.90
69204;DHT22;56317;27.658;85.326;2023-04-08T01:51:29;16.70;99.90
69204;DHT22;56317;27.658;85.326;2023-04-08T01:53:57;16.80;99.90
69204;DHT22;56317;27.658;85.326;2023-04-08T01:56:25;17.10;99.90
69204;DHT22;56317;27.658;85.326;2023-04-08T01:58:57;17.20;99.90
69204;DHT22;56317;27.658;85.326;2023-04-08T02:01:28;17.40;99.90
69204;DHT22;56317;27.658;85.326;2023-04-08T02:03:58;17.50;99.90
69204;DHT22;56317;27.658;85.326;2023-04-08T02:06:27;17.40;99.90
69204;DHT22;56317;27.658;85.326;2023-04-08T02:08:55;17.40;99.90
69204;DHT22;56317;27.658;85.326;2023-04-08T02:11:22;17.40;99.90
69204;DHT22;56317;27.658;85.326;2023-04-08T02:13:52;17.50;99.90
69204;DHT22;56317;27.658;85.326;2023-04-08T02:16:33;17.60;99.90
69204;DHT22;56317;27.658;85.326;2023-04-08T02:19:29;17.80;99.90
69204;DHT22;56317;27.658;85.326;2023-04-08T02:22:04;18.00;99.90
69204;DHT22;56317;27.658;85.326;2023-04-08T02:24:33;18.20;99.90
69204;DHT22;56317;27.658;85.326;2023-04-08T02:27:03;18.50;99.90
69204;DHT22;56317;27.658;85.326;2023-04-08T02:29:31;18.70;99.90
69204;DHT22;56317;27.658;85.326;2023-04-08T02:32:02;18.70;99.90
69204;DHT22;56317;27.658;85.326;2023-04-08T02:34:30;18.80;99.90
69204;DHT22;56317;27.658;85.326;2023-04-08T02:36:58;19.00;99.90
69204;DHT22;56317;27.658;85.326;2023-04-08T02:39:32;19.20;99.90
69204;DHT22;56317;27.658;85.326;2023-04-08T02:41:59;19.50;99.90
69204;DHT22;56317;27.658;85.326;2023-04-08T02:44:27;19.80;98.30
69204;DHT22;56317;27.658;85.326;2023-04-08T02:46:54;20.00;97.30
69204;DHT22;56317;27.658;85.326;2023-04-08T02:49:21;20.10;96.90
69204;DHT22;56317;27.658;85.326;2023-04-08T02:51:49;20.30;97.50
69204;DHT22;56317;27.658;85.326;2023-04-08T02:54:16;20.30;96.60
69204;DHT22;56317;27.658;85.326;2023-04-08T02:56:43;20.50;95.90
69204;DHT22;56317;27.658;85.326;2023-04-08T02:59:14;20.60;95.90
69204;DHT22;56317;27.658;85.326;2023-04-08T03:01:42;20.70;95.60
69204;DHT22;56317;27.658;85.326;2023-04-08T03:04:09;20.70;95.40
69204;DHT22;56317;27.658;85.326;2023-04-08T03:06:37;20.90;94.60
69204;DHT22;56317;27.658;85.326;2023-04-08T03:09:04;21.20;95.30
69204;DHT22;56317;27.658;85.326;2023-04-08T03:11:31;21.50;95.30
69204;DHT22;56317;27.658;85.326;2023-04-08T03:13:59;21.90;94.80
69204;DHT22;56317;27.658;85.326;2023-04-08T03:16:27;22.30;94.10
69204;DHT22;56317;27.658;85.326;2023-04-08T03:18:54;22.50;93.80
69204;DHT22;56317;27.658;85.326;2023-04-08T03:21:21;22.50;93.20
69204;DHT22;56317;27.658;85.326;2023-04-08T03:23:48;22.60;92.60
69204;DHT22;56317;27.658;85.326;2023-04-08T03:26:16;22.70;90.70
69204;DHT22;56317;27.658;85.326;2023-04-08T03:28:43;22.60;90.40
69204;DHT22;56317;27.658;85.326;2023-04-08T03:31:13;22.70;90.20
69204;DHT22;56317;27.658;85.326;2023-04-08T03:33:40;22.70;90.60
69204;DHT22;56317;27.658;85.326;2023-04-08T03:36:07;22.80;90.70
69204;DHT22;56317;27.658;85.326;2023-04-08T03:38:35;23.20;89.80
69204;DHT22;56317;27.658;85.326;2023-04-08T03:41:03;23.60;87.60
69204;DHT22;56317;27.658;85.326;2023-04-08T03:43:30;24.10;87.10
69204;DHT22;56317;27.658;85.326;2023-04-08T03:45:58;24.20;85.00
69204;DHT22;56317;27.658;85.326;2023-04-08T03:48:25;24.10;82.90
69204;DHT22;56317;27.658;85.326;2023-04-08T03:50:53;24.10;81.90
69204;DHT22;56317;27.658;85.326;2023-04-08T03:53:20;24.10;82.30
69204;DHT22;56317;27.658;85.326;2023-04-08T03:55:48;24.30;83.50
69204;DHT22;56317;27.658;85.326;2023-04-08T03:58:18;24.40;80.80
69204;DHT22;56317;27.658;85.326;2023-04-08T04:00:46;24.70;79.40
69204;DHT22;56317;27.658;85.326;2023-04-08T04:03:13;25.10;80.10
69204;DHT22;56317;27.658;85.326;2023-04-08T04:05:40;25.40;79.20
69204;DHT22;56317;27.658;85.326;2023-04-08T04:08:08;25.60;78.50
69204;DHT22;56317;27.658;85.326;2023-04-08T04:10:35;25.90;80.70
69204;DHT22;56317;27.658;85.326;2023-04-08T04:13:02;26.00;77.70
69204;DHT22;56317;27.658;85.326;2023-04-08T04:15:29;25.90;75.50
69204;DHT22;56317;27.658;85.326;2023-04-08T04:17:57;26.20;76.70
69204;DHT22;56317;27.658;85.326;2023-04-08T04:20:24;26.60;73.40
69204;DHT22;56317;27.658;85.326;2023-04-08T04:22:51;26.70;72.80
69204;DHT22;56317;27.658;85.326;2023-04-08T04:25:22;26.70;71.90
69204;DHT22;56317;27.658;85.326;2023-04-08T04:27:49;26.60;71.00
69204;DHT22;56317;27.658;85.326;2023-04-08T04:30:16;26.70;72.40
69204;DHT22;56317;27.658;85.326;2023-04-08T04:32:45;26.90;70.00
69204;DHT22;56317;27.658;85.326;2023-04-08T04:35:12;27.10;70.30
69204;DHT22;56317;27.658;85.326;2023-04-08T04:37:39;27.00;66.50
69204;DHT22;56317;27.658;85.326;2023-04-08T04:40:09;27.00;65.60
69204;DHT22;56317;27.658;85.326;2023-04-08T04:42:37;27.20;64.70
69204;DHT22;56317;27.658;85.326;2023-04-08T04:45:04;27.60;65.40
69204;DHT22;56317;27.658;85.326;2023-04-08T04:47:32;27.90;63.50
69204;DHT22;56317;27.658;85.326;2023-04-08T04:49:59;28.20;61.70
69204;DHT22;56317;27.658;85.326;2023-04-08T04:52:26;28.30;59.10
69204;DHT22;56317;27.658;85.326;2023-04-08T04:54:55;28.20;54.80
69204;DHT22;56317;27.658;85.326;2023-04-08T04:57:23;27.90;55.20
69204;DHT22;56317;27.658;85.326;2023-04-08T04:59:50;28.10;55.50
69204;DHT22;56317;27.658;85.326;2023-04-08T05:02:17;28.60;54.60
69204;DHT22;56317;27.658;85.326;2023-04-08T05:04:44;29.30;54.90
69204;DHT22;56317;27.658;85.326;2023-04-08T05:07:11;30.00;51.60
69204;DHT22;56317;27.658;85.326;2023-04-08T05:09:39;30.30;51.80
69204;DHT22;56317;27.658;85.326;2023-04-08T05:12:06;30.40;50.30
69204;DHT22;56317;27.658;85.326;2023-04-08T05:14:33;30.70;47.10
69204;DHT22;56317;27.658;85.326;2023-04-08T05:17:00;30.90;46.30
69204;DHT22;56317;27.658;85.326;2023-04-08T05:19:28;30.70;44.70
69204;DHT22;56317;27.658;85.326;2023-04-08T05:21:55;30.90;45.50
69204;DHT22;56317;27.658;85.326;2023-04-08T05:24:22;31.20;45.50
69204;DHT22;56317;27.658;85.326;2023-04-08T05:26:49;31.60;47.50
69204;DHT22;56317;27.658;85.326;2023-04-08T05:29:19;32.20;46.70
69204;DHT22;56317;27.658;85.326;2023-04-08T05:31:47;32.70;46.00
69204;DHT22;56317;27.658;85.326;2023-04-08T05:34:14;33.10;44.00
69204;DHT22;56317;27.658;85.326;2023-04-08T05:36:48;33.60;40.00
69204;DHT22;56317;27.658;85.326;2023-04-08T05:39:19;33.50;39.60
69204;DHT22;56317;27.658;85.326;2023-04-08T05:41:47;33.10;39.00
69204;DHT22;56317;27.658;85.326;2023-04-08T05:44:14;32.90;39.00
69204;DHT22;56317;27.658;85.326;2023-04-08T05:46:41;32.60;37.80
69204;DHT22;56317;27.658;85.326;2023-04-08T05:49:09;32.50;40.50
69204;DHT22;56317;27.658;85.326;2023-04-08T05:51:36;32.80;39.50
69204;DHT22;56317;27.658;85.326;2023-04-08T05:54:04;33.40;40.50
69204;DHT22;56317;27.658;85.326;2023-04-08T05:56:31;33.80;38.70
69204;DHT22;56317;27.658;85.326;2023-04-08T05:58:58;34.50;40.20
69204;DHT22;56317;27.658;85.326;2023-04-08T06:01:25;36.20;38.00
69204;DHT22;56317;27.658;85.326;2023-04-08T06:03:53;37.60;36.70
69204;DHT22;56317;27.658;85.326;2023-04-08T06:06:22;38.60;36.10
69204;DHT22;56317;27.658;85.326;2023-04-08T06:08:49;38.70;35.30
69204;DHT22;56317;27.658;85.326;2023-04-08T06:11:17;38.60;35.20
69204;DHT22;56317;27.658;85.326;2023-04-08T06:13:44;39.10;36.30
69204;DHT22;56317;27.658;85.326;2023-04-08T06:16:15;40.80;37.30
69204;DHT22;56317;27.658;85.326;2023-04-08T06:18:43;42.80;36.40
69204;DHT22;56317;27.658;85.326;2023-04-08T06:21:10;43.90;33.30
69204;DHT22;56317;27.658;85.326;2023-04-08T06:23:37;43.70;32.50
69204;DHT22;56317;27.658;85.326;2023-04-08T06:26:04;42.20;32.30
69204;DHT22;56317;27.658;85.326;2023-04-08T06:28:32;41.50;32.60
69204;DHT22;56317;27.658;85.326;2023-04-08T06:30:59;42.40;34.00
69204;DHT22;56317;27.658;85.326;2023-04-08T06:33:27;44.00;33.70
69204;DHT22;56317;27.658;85.326;2023-04-08T06:36:06;45.60;32.80
69204;DHT22;56317;27.658;85.326;2023-04-08T06:38:34;46.50;31.40
69204;DHT22;56317;27.658;85.326;2023-04-08T06:41:08;46.90;31.10
69204;DHT22;56317;27.658;85.326;2023-04-08T06:43:36;47.00;31.10
69204;DHT22;56317;27.658;85.326;2023-04-08T06:46:03;47.50;30.70
69204;DHT22;56317;27.658;85.326;2023-04-08T06:48:30;48.20;30.40
69204;DHT22;56317;27.658;85.326;2023-04-08T06:50:59;48.70;31.20
69204;DHT22;56317;27.658;85.326;2023-04-08T06:53:27;49.30;30.60
69204;DHT22;56317;27.658;85.326;2023-04-08T06:55:59;49.80;29.50
69204;DHT22;56317;27.658;85.326;2023-04-08T06:58:26;48.50;29.40
69204;DHT22;56317;27.658;85.326;2023-04-08T07:00:56;47.30;29.90
69204;DHT22;56317;27.658;85.326;2023-04-08T07:03:24;46.50;29.90
69204;DHT22;56317;27.658;85.326;2023-04-08T07:05:52;46.60;31.20
69204;DHT22;56317;27.658;85.326;2023-04-08T07:08:19;47.30;30.90
69204;DHT22;56317;27.658;85.326;2023-04-08T07:10:50;46.50;31.90
69204;DHT22;56317;27.658;85.326;2023-04-08T07:13:18;45.70;31.60
69204;DHT22;56317;27.658;85.326;2023-04-08T07:15:45;45.50;31.20
69204;DHT22;56317;27.658;85.326;2023-04-08T07:18:12;46.10;31.70
69204;DHT22;56317;27.658;85.326;2023-04-08T07:20:39;46.30;31.40
69204;DHT22;56317;27.658;85.326;2023-04-08T07:23:07;46.70;31.60
69204;DHT22;56317;27.658;85.326;2023-04-08T07:25:34;47.60;32.60
69204;DHT22;56317;27.658;85.326;2023-04-08T07:28:01;47.50;32.70
69204;DHT22;56317;27.658;85.326;2023-04-08T07:30:29;47.60;32.50
69204;DHT22;56317;27.658;85.326;2023-04-08T07:32:56;46.80;32.10
69204;DHT22;56317;27.658;85.326;2023-04-08T07:35:24;45.90;32.80
69204;DHT22;56317;27.658;85.326;2023-04-08T07:37:51;45.10;33.50
69204;DHT22;56317;27.658;85.326;2023-04-08T07:40:19;44.10;34.20
69204;DHT22;56317;27.658;85.326;2023-04-08T07:42:46;42.60;35.10
69204;DHT22;56317;27.658;85.326;2023-04-08T07:45:14;41.00;36.60
69204;DHT22;56317;27.658;85.326;2023-04-08T07:47:42;39.40;37.40
69204;DHT22;56317;27.658;85.326;2023-04-08T07:50:10;40.20;35.80
69204;DHT22;56317;27.658;85.326;2023-04-08T07:52:37;41.90;33.80
69204;DHT22;56317;27.658;85.326;2023-04-08T07:55:05;43.60;33.10
69204;DHT22;56317;27.658;85.326;2023-04-08T07:57:32;45.20;32.10
69204;DHT22;56317;27.658;85.326;2023-04-08T07:59:59;46.20;31.70
69204;DHT22;56317;27.658;85.326;2023-04-08T08:02:26;45.90;31.00
69204;DHT22;56317;27.658;85.326;2023-04-08T08:04:54;45.40;31.00
69204;DHT22;56317;27.658;85.326;2023-04-08T08:07:21;44.20;34.30
69204;DHT22;56317;27.658;85.326;2023-04-08T08:13:19;45.40;32.90
69204;DHT22;56317;27.658;85.326;2023-04-08T08:15:51;45.20;33.30
69204;DHT22;56317;27.658;85.326;2023-04-08T08:18:19;44.20;34.90
69204;DHT22;56317;27.658;85.326;2023-04-08T08:20:46;43.10;35.00
69204;DHT22;56317;27.658;85.326;2023-04-08T08:23:13;42.30;36.10
69204;DHT22;56317;27.658;85.326;2023-04-08T08:25:43;42.20;36.40
69204;DHT22;56317;27.658;85.326;2023-04-08T08:28:11;42.40;36.60
69204;DHT22;56317;27.658;85.326;2023-04-08T08:30:41;42.30;36.60
69204;DHT22;56317;27.658;85.326;2023-04-08T08:33:09;42.20;36.50
69204;DHT22;56317;27.658;85.326;2023-04-08T08:35:36;41.70;36.60
69204;DHT22;56317;27.658;85.326;2023-04-08T08:38:03;41.40;36.10
69204;DHT22;56317;27.658;85.326;2023-04-08T08:40:31;41.10;36.70
69204;DHT22;56317;27.658;85.326;2023-04-08T08:42:58;40.90;36.80
69204;DHT22;56317;27.658;85.326;2023-04-08T08:45:29;40.60;37.00
69204;DHT22;56317;27.658;85.326;2023-04-08T08:47:57;40.80;36.90
69204;DHT22;56317;27.658;85.326;2023-04-08T08:50:24;40.90;36.80
69204;DHT22;56317;27.658;85.326;2023-04-08T08:52:52;40.60;36.60
69204;DHT22;56317;27.658;85.326;2023-04-08T08:55:20;40.20;37.40
69204;DHT22;56317;27.658;85.326;2023-04-08T08:57:50;40.40;36.70
69204;DHT22;56317;27.658;85.326;2023-04-08T09:00:18;40.00;36.70
69204;DHT22;56317;27.658;85.326;2023-04-08T09:02:45;39.70;37.10
69204;DHT22;56317;27.658;85.326;2023-04-08T09:05:12;39.80;37.20
69204;DHT22;56317;27.658;85.326;2023-04-08T09:07:39;39.90;36.90
69204;DHT22;56317;27.658;85.326;2023-04-08T09:10:07;39.90;36.60
69204;DHT22;56317;27.658;85.326;2023-04-08T09:12:53;39.70;37.50
69204;DHT22;56317;27.658;85.326;2023-04-08T09:15:21;39.50;36.90
69204;DHT22;56317;27.658;85.326;2023-04-08T09:17:48;39.20;37.00
69204;DHT22;56317;27.658;85.326;2023-04-08T09:20:15;39.40;37.30
69204;DHT22;56317;27.658;85.326;2023-04-08T09:25:30;39.30;37.20
69204;DHT22;56317;27.658;85.326;2023-04-08T09:28:00;41.30;36.30
69204;DHT22;56317;27.658;85.326;2023-04-08T09:30:28;42.60;34.10
69204;DHT22;56317;27.658;85.326;2023-04-08T09:32:58;42.80;33.90
69204;DHT22;56317;27.658;85.326;2023-04-08T09:35:26;42.70;33.60
69204;DHT22;56317;27.658;85.326;2023-04-08T09:37:54;43.70;34.60
69204;DHT22;56317;27.658;85.326;2023-04-08T09:40:24;45.10;33.10
69204;DHT22;56317;27.658;85.326;2023-04-08T09:42:53;45.20;32.00
69204;DHT22;56317;27.658;85.326;2023-04-08T09:45:25;45.00;32.10
69204;DHT22;56317;27.658;85.326;2023-04-08T09:48:14;44.40;32.60
69204;DHT22;56317;27.658;85.326;2023-04-08T09:50:48;43.90;32.30
69204;DHT22;56317;27.658;85.326;2023-04-08T09:53:49;42.30;33.00
69204;DHT22;56317;27.658;85.326;2023-04-08T09:56:20;39.50;34.70
69204;DHT22;56317;27.658;85.326;2023-04-08T09:58:50;37.70;35.90
69204;DHT22;56317;27.658;85.326;2023-04-08T10:01:25;36.80;36.90
69204;DHT22;56317;27.658;85.326;2023-04-08T10:03:55;36.70;37.70
69204;DHT22;56317;27.658;85.326;2023-04-08T10:06:27;37.60;37.60
69204;DHT22;56317;27.658;85.326;2023-04-08T10:08:57;36.60;38.00
69204;DHT22;56317;27.658;85.326;2023-04-08T10:11:25;35.50;38.50
69204;DHT22;56317;27.658;85.326;2023-04-08T10:13:52;34.90;39.70
69204;DHT22;56317;27.658;85.326;2023-04-08T10:18:49;34.30;40.20
69204;DHT22;56317;27.658;85.326;2023-04-08T10:21:42;34.90;40.00
69204;DHT22;56317;27.658;85.326;2023-04-08T10:24:14;35.10;40.00
69204;DHT22;56317;27.658;85.326;2023-04-08T10:26:44;34.70;40.00
69204;DHT22;56317;27.658;85.326;2023-04-08T10:31:48;33.90;41.20
69204;DHT22;56317;27.658;85.326;2023-04-08T10:34:22;34.90;41.00
69204;DHT22;56317;27.658;85.326;2023-04-08T10:36:56;35.50;40.00
69204;DHT22;56317;27.658;85.326;2023-04-08T10:39:25;35.20;39.90
69204;DHT22;56317;27.658;85.326;2023-04-08T10:41:53;34.80;40.30
69204;DHT22;56317;27.658;85.326;2023-04-08T10:44:26;34.20;40.60
69204;DHT22;56317;27.658;85.326;2023-04-08T10:46:54;33.50;41.20
69204;DHT22;56317;27.658;85.326;2023-04-08T10:49:22;33.00;41.90
69204;DHT22;56317;27.658;85.326;2023-04-08T10:51:58;32.30;42.80
69204;DHT22;56317;27.658;85.326;2023-04-08T10:54:26;32.10;43.60
69204;DHT22;56317;27.658;85.326;2023-04-08T10:56:54;32.20;42.90
69204;DHT22;56317;27.658;85.326;2023-04-08T10:59:29;31.90;42.80
69204;DHT22;56317;27.658;85.326;2023-04-08T11:01:57;31.60;42.90
69204;DHT22;56317;27.658;85.326;2023-04-08T11:04:26;31.70;43.30
69204;DHT22;56317;27.658;85.326;2023-04-08T11:06:53;32.50;42.90
69204;DHT22;56317;27.658;85.326;2023-04-08T11:09:21;33.00;42.40
69204;DHT22;56317;27.658;85.326;2023-04-08T11:11:48;33.30;42.40
69204;DHT22;56317;27.658;85.326;2023-04-08T11:14:17;33.30;42.10
69204;DHT22;56317;27.658;85.326;2023-04-08T11:16:46;33.00;42.30
69204;DHT22;56317;27.658;85.326;2023-04-08T11:19:14;32.40;42.40
69204;DHT22;56317;27.658;85.326;2023-04-08T11:21:41;31.30;43.50
69204;DHT22;56317;27.658;85.326;2023-04-08T11:24:12;30.80;44.60
69204;DHT22;56317;27.658;85.326;2023-04-08T11:26:40;30.20;45.00
69204;DHT22;56317;27.658;85.326;2023-04-08T11:29:10;30.00;45.80
69204;DHT22;56317;27.658;85.326;2023-04-08T11:31:41;30.20;45.60
69204;DHT22;56317;27.658;85.326;2023-04-08T11:34:09;30.10;45.70
69204;DHT22;56317;27.658;85.326;2023-04-08T11:36:38;29.60;46.20
69204;DHT22;56317;27.658;85.326;2023-04-08T11:39:10;28.80;47.00
69204;DHT22;56317;27.658;85.326;2023-04-08T11:41:38;28.10;47.70
69204;DHT22;56317;27.658;85.326;2023-04-08T11:44:06;27.40;48.50
69204;DHT22;56317;27.658;85.326;2023-04-08T11:46:34;26.90;49.50
69204;DHT22;56317;27.658;85.326;2023-04-08T11:49:04;26.60;50.20
69204;DHT22;56317;27.658;85.326;2023-04-08T11:51:33;26.30;50.50
69204;DHT22;56317;27.658;85.326;2023-04-08T11:54:04;26.00;51.30
69204;DHT22;56317;27.658;85.326;2023-04-08T11:56:44;25.70;52.00
69204;DHT22;56317;27.658;85.326;2023-04-08T11:59:16;25.40;53.10
69204;DHT22;56317;27.658;85.326;2023-04-08T12:01:43;25.10;52.70
69204;DHT22;56317;27.658;85.326;2023-04-08T12:04:10;24.80;53.60
69204;DHT22;56317;27.658;85.326;2023-04-08T12:06:38;24.50;54.10
69204;DHT22;56317;27.658;85.326;2023-04-08T12:09:08;24.20;54.20
69204;DHT22;56317;27.658;85.326;2023-04-08T12:11:36;24.00;54.60
69204;DHT22;56317;27.658;85.326;2023-04-08T12:14:03;23.80;55.60
69204;DHT22;56317;27.658;85.326;2023-04-08T12:16:30;23.60;56.10
69204;DHT22;56317;27.658;85.326;2023-04-08T12:18:58;23.40;55.90
69204;DHT22;56317;27.658;85.326;2023-04-08T12:21:25;23.20;56.10
69204;DHT22;56317;27.658;85.326;2023-04-08T12:23:53;23.10;56.30
69204;DHT22;56317;27.658;85.326;2023-04-08T12:26:20;22.90;56.60
69204;DHT22;56317;27.658;85.326;2023-04-08T12:28:48;22.80;57.10
69204;DHT22;56317;27.658;85.326;2023-04-08T12:31:15;22.50;56.60
69204;DHT22;56317;27.658;85.326;2023-04-08T12:33:42;22.40;57.10
69204;DHT22;56317;27.658;85.326;2023-04-08T12:36:09;22.20;56.90
69204;DHT22;56317;27.658;85.326;2023-04-08T12:38:37;22.00;57.10
69204;DHT22;56317;27.658;85.326;2023-04-08T12:41:04;21.80;57.30
69204;DHT22;56317;27.658;85.326;2023-04-08T12:43:33;21.60;57.60
69204;DHT22;56317;27.658;85.326;2023-04-08T12:46:00;21.40;57.70
69204;DHT22;56317;27.658;85.326;2023-04-08T12:48:28;21.20;57.80
69204;DHT22;56317;27.658;85.326;2023-04-08T12:50:56;21.10;58.50
69204;DHT22;56317;27.658;85.326;2023-04-08T12:53:24;21.00;59.00
69204;DHT22;56317;27.658;85.326;2023-04-08T12:55:51;20.80;59.20
69204;DHT22;56317;27.658;85.326;2023-04-08T12:58:25;20.80;59.40
69204;DHT22;56317;27.658;85.326;2023-04-08T13:00:52;20.70;59.40
69204;DHT22;56317;27.658;85.326;2023-04-08T13:03:19;20.60;59.20
69204;DHT22;56317;27.658;85.326;2023-04-08T13:05:50;20.60;59.60
69204;DHT22;56317;27.658;85.326;2023-04-08T13:08:17;20.50;60.10
69204;DHT22;56317;27.658;85.326;2023-04-08T13:10:44;20.40;60.30
69204;DHT22;56317;27.658;85.326;2023-04-08T13:13:14;20.40;60.70
69204;DHT22;56317;27.658;85.326;2023-04-08T13:15:42;20.30;60.90
69204;DHT22;56317;27.658;85.326;2023-04-08T13:18:09;20.20;61.20
69204;DHT22;56317;27.658;85.326;2023-04-08T13:20:38;20.20;61.10
69204;DHT22;56317;27.658;85.326;2023-04-08T13:23:05;20.20;61.30
69204;DHT22;56317;27.658;85.326;2023-04-08T13:25:32;20.20;61.20
69204;DHT22;56317;27.658;85.326;2023-04-08T13:28:00;20.10;61.50
69204;DHT22;56317;27.658;85.326;2023-04-08T13:30:27;20.20;61.90
69204;DHT22;56317;27.658;85.326;2023-04-08T13:32:54;20.20;61.10
69204;DHT22;56317;27.658;85.326;2023-04-08T13:35:21;20.10;61.80
69204;DHT22;56317;27.658;85.326;2023-04-08T13:37:49;20.10;61.50
69204;DHT22;56317;27.658;85.326;2023-04-08T13:40:17;20.10;61.70
69204;DHT22;56317;27.658;85.326;2023-04-08T13:42:44;20.00;62.00
69204;DHT22;56317;27.658;85.326;2023-04-08T13:45:12;20.00;61.90
69204;DHT22;56317;27.658;85.326;2023-04-08T13:47:40;19.90;62.10
69204;DHT22;56317;27.658;85.326;2023-04-08T13:50:08;19.80;61.90
69204;DHT22;56317;27.658;85.326;2023-04-08T13:52:35;19.80;62.00
69204;DHT22;56317;27.658;85.326;2023-04-08T13:55:02;19.70;62.60
69204;DHT22;56317;27.658;85.326;2023-04-08T13:57:30;19.70;62.90
69204;DHT22;56317;27.658;85.326;2023-04-08T13:59:57;19.60;62.70
69204;DHT22;56317;27.658;85.326;2023-04-08T14:02:24;19.50;63.10
69204;DHT22;56317;27.658;85.326;2023-04-08T14:04:52;19.40;63.40
69204;DHT22;56317;27.658;85.326;2023-04-08T14:07:19;19.40;64.30
69204;DHT22;56317;27.658;85.326;2023-04-08T14:09:46;19.30;64.00
69204;DHT22;56317;27.658;85.326;2023-04-08T14:12:13;19.20;64.90
69204;DHT22;56317;27.658;85.326;2023-04-08T14:14:40;19.10;64.80
69204;DHT22;56317;27.658;85.326;2023-04-08T14:17:08;19.10;64.80
69204;DHT22;56317;27.658;85.326;2023-04-08T14:19:35;19.10;64.90
69204;DHT22;56317;27.658;85.326;2023-04-08T14:22:02;19.00;65.00
69204;DHT22;56317;27.658;85.326;2023-04-08T14:24:30;18.90;65.30
69204;DHT22;56317;27.658;85.326;2023-04-08T14:26:57;18.70;65.50
69204;DHT22;56317;27.658;85.326;2023-04-08T14:29:24;18.70;66.10
69204;DHT22;56317;27.658;85.326;2023-04-08T14:31:51;18.60;66.10
69204;DHT22;56317;27.658;85.326;2023-04-08T14:34:22;18.40;66.30
69204;DHT22;56317;27.658;85.326;2023-04-08T14:36:49;18.30;66.90
69204;DHT22;56317;27.658;85.326;2023-04-08T14:39:16;18.20;67.30
69204;DHT22;56317;27.658;85.326;2023-04-08T14:41:43;18.10;67.50
69204;DHT22;56317;27.658;85.326;2023-04-08T14:44:13;18.10;67.80
69204;DHT22;56317;27.658;85.326;2023-04-08T14:46:40;18.00;68.60
69204;DHT22;56317;27.658;85.326;2023-04-08T14:49:07;17.90;69.40
69204;DHT22;56317;27.658;85.326;2023-04-08T14:51:34;17.90;69.40
69204;DHT22;56317;27.658;85.326;2023-04-08T14:54:03;17.80;70.10
69204;DHT22;56317;27.658;85.326;2023-04-08T14:56:31;17.80;70.20
69204;DHT22;56317;27.658;85.326;2023-04-08T14:58:58;17.70;70.50
69204;DHT22;56317;27.658;85.326;2023-04-08T15:01:25;17.50;71.20
69204;DHT22;56317;27.658;85.326;2023-04-08T15:03:54;17.60;71.20
69204;DHT22;56317;27.658;85.326;2023-04-08T15:06:21;17.50;71.30
69204;DHT22;56317;27.658;85.326;2023-04-08T15:08:48;17.40;72.00
69204;DHT22;56317;27.658;85.326;2023-04-08T15:11:15;17.40;72.00
69204;DHT22;56317;27.658;85.326;2023-04-08T15:13:44;17.40;72.40
69204;DHT22;56317;27.658;85.326;2023-04-08T15:16:12;17.30;72.30
69204;DHT22;56317;27.658;85.326;2023-04-08T15:18:39;17.30;72.60
69204;DHT22;56317;27.658;85.326;2023-04-08T15:21:07;17.20;73.10
69204;DHT22;56317;27.658;85.326;2023-04-08T15:23:34;17.10;73.40
69204;DHT22;56317;27.658;85.326;2023-04-08T15:26:08;17.10;73.90
69204;DHT22;56317;27.658;85.326;2023-04-08T15:28:36;17.10;74.20
69204;DHT22;56317;27.658;85.326;2023-04-08T15:31:05;17.10;74.70
69204;DHT22;56317;27.658;85.326;2023-04-08T15:33:33;17.00;75.20
69204;DHT22;56317;27.658;85.326;2023-04-08T15:36:00;17.00;76.70